Time;durP1;ratioP1;P1;durP2;ratioP2;P2;SDS_P1;SDS_P2;PMS_P1;PMS_P2;Temp;Humidity;BMP_temperature;BMP_pressure;BME280_temperature;BME280_humidity;BME280_pressure;Samples;Min_cycle;Max_cycle;Signal;HPM_P1;HPM_P2
2022/05/17 00:01:47;;;;;;;18.63;17.00;;;15.50;99.90;;;;;;5068597;28;20264;-39
2022/05/17 00:04:14;;;;;;;18.37;16.77;;;15.50;99.90;;;;;;5063881;28;20177;-38
2022/05/17 00:06:40;;;;;;;17.30;15.80;;;15.40;99.90;;;;;;5071598;28;20419;-38
2022/05/17 00:09:05;;;;;;;19.70;17.90;;;15.40;99.90;;;;;;5071336;28;20846;-40
2022/05/17 00:11:31;;;;;;;16.83;15.33;;;15.30;99.90;;;;;;5070834;28;20514;-38
2022/05/17 00:13:57;;;;;;;18.17;16.67;;;15.30;99.90;;;;;;5070042;28;20193;-39
2022/05/17 00:16:24;;;;;;;15.70;14.10;;;15.30;99.90;;;;;;5071444;28;20221;-40
2022/05/17 00:18:49;;;;;;;16.10;14.70;;;15.20;99.90;;;;;;5058091;28;20186;-39
2022/05/17 00:21:15;;;;;;;17.93;16.23;;;15.10;99.90;;;;;;5070282;28;20424;-40
2022/05/17 00:23:42;;;;;;;17.70;16.10;;;15.10;99.90;;;;;;5071319;28;20419;-43
2022/05/17 00:26:08;;;;;;;17.10;15.60;;;15.00;99.90;;;;;;5070824;28;20820;-41
2022/05/17 00:28:36;;;;;;;17.20;15.70;;;15.00;99.90;;;;;;5071178;28;20455;-40
2022/05/17 00:31:03;;;;;;;17.47;15.63;;;14.90;99.90;;;;;;5070483;28;20823;-40
2022/05/17 00:33:28;;;;;;;16.30;14.70;;;14.90;99.90;;;;;;5058947;28;20527;-41
2022/05/17 00:35:54;;;;;;;17.30;15.60;;;14.90;99.90;;;;;;5070417;28;20526;-38
2022/05/17 00:38:20;;;;;;;17.23;15.60;;;14.90;99.90;;;;;;5070843;28;20189;-38
2022/05/17 00:40:46;;;;;;;17.27;15.70;;;14.90;99.90;;;;;;5086752;28;20173;-39
2022/05/17 00:43:29;;;;;;;17.13;15.63;;;14.90;99.90;;;;;;5082824;28;20667;-39
2022/05/17 00:46:01;;;;;;;15.97;14.57;;;14.90;99.90;;;;;;5090939;28;20423;-40
2022/05/17 00:48:27;;;;;;;17.97;15.70;;;14.80;99.90;;;;;;5066154;28;20849;-39
2022/05/17 00:50:54;;;;;;;16.40;14.90;;;14.90;99.90;;;;;;5069917;28;20445;-41
2022/05/17 00:53:27;;;;;;;17.07;15.57;;;14.90;99.90;;;;;;5070385;28;20963;-39
2022/05/17 00:56:03;;;;;;;15.83;14.40;;;14.80;99.90;;;;;;5070424;28;20946;-38
2022/05/17 00:58:40;;;;;;;16.20;14.67;;;14.70;99.90;;;;;;5070680;28;20427;-39
2022/05/17 01:01:29;;;;;;;15.83;14.23;;;14.70;99.90;;;;;;5070019;28;21092;-40
2022/05/17 01:04:00;;;;;;;15.90;14.50;;;14.70;99.90;;;;;;5060698;28;20507;-39
2022/05/17 01:06:32;;;;;;;15.57;13.97;;;14.70;99.90;;;;;;5070267;28;20822;-37
2022/05/17 01:08:58;;;;;;;16.17;14.47;;;14.60;99.90;;;;;;5070517;28;20433;-38
2022/05/17 01:11:24;;;;;;;16.43;14.90;;;14.60;99.90;;;;;;5068327;28;20935;-40
2022/05/17 01:16:34;;;;;;;16.33;14.73;;;14.60;99.90;;;;;;5070213;28;20308;-37
2022/05/17 01:19:00;;;;;;;16.47;14.30;;;14.60;99.90;;;;;;5058236;28;20519;-37
2022/05/17 01:21:26;;;;;;;16.37;14.83;;;14.50;99.90;;;;;;5069408;28;20180;-37
2022/05/17 01:23:51;;;;;;;18.10;16.27;;;14.60;99.90;;;;;;5069869;28;21133;-38
2022/05/17 01:26:20;;;;;;;16.00;14.17;;;14.60;99.90;;;;;;5070172;28;20526;-38
2022/05/17 01:28:46;;;;;;;16.30;14.80;;;14.60;99.90;;;;;;5069677;28;20185;-38
2022/05/17 01:31:12;;;;;;;17.30;15.30;;;14.60;99.90;;;;;;5069360;28;20427;-38
2022/05/17 01:33:39;;;;;;;15.00;13.70;;;14.50;99.90;;;;;;5060239;28;20443;-38
2022/05/17 01:36:07;;;;;;;16.33;14.77;;;14.50;99.90;;;;;;5069725;28;20253;-38
2022/05/17 01:38:34;;;;;;;15.30;13.93;;;14.40;99.90;;;;;;5071455;28;20506;-38
2022/05/17 01:41:00;;;;;;;15.33;13.83;;;14.40;99.90;;;;;;5088203;28;20458;-40
2022/05/17 01:43:26;;;;;;;16.53;14.93;;;14.40;99.90;;;;;;5083083;28;20933;-38
2022/05/17 01:45:52;;;;;;;14.80;13.30;;;14.40;99.90;;;;;;5090080;28;20597;-38
2022/05/17 01:48:18;;;;;;;16.80;15.20;;;14.30;99.90;;;;;;5068520;28;20443;-38
2022/05/17 01:50:44;;;;;;;14.57;13.07;;;14.30;99.90;;;;;;5067363;28;20988;-40
2022/05/17 01:53:10;;;;;;;16.53;15.03;;;14.30;99.90;;;;;;5069405;28;20685;-37
2022/05/17 01:55:36;;;;;;;17.10;15.43;;;14.40;99.90;;;;;;5069423;28;20427;-40
2022/05/17 01:58:02;;;;;;;16.57;14.80;;;14.40;99.90;;;;;;5069180;28;20471;-41
2022/05/17 02:00:28;;;;;;;15.23;13.63;;;14.40;99.90;;;;;;5068837;28;20808;-40
2022/05/17 02:02:54;;;;;;;14.47;13.20;;;14.40;99.90;;;;;;5066464;28;20436;-39
2022/05/17 02:05:22;;;;;;;15.50;13.93;;;14.30;99.90;;;;;;5062723;28;20230;-39
2022/05/17 02:07:50;;;;;;;13.87;12.57;;;14.30;99.90;;;;;;5069174;28;20188;-40
2022/05/17 02:10:16;;;;;;;14.10;12.80;;;14.40;99.90;;;;;;5068380;28;20445;-40
2022/05/17 02:12:42;;;;;;;14.50;12.40;;;14.40;99.90;;;;;;5069077;28;20462;-39
2022/05/17 02:15:08;;;;;;;13.10;11.90;;;14.40;99.90;;;;;;5069235;28;20455;-39
2022/05/17 02:17:38;;;;;;;12.80;11.70;;;14.30;99.90;;;;;;5069178;28;20296;-40
2022/05/17 02:20:06;;;;;;;12.10;11.13;;;14.30;99.90;;;;;;5057397;28;20442;-39
2022/05/17 02:22:31;;;;;;;11.07;10.13;;;14.20;99.90;;;;;;5069053;28;20424;-41
2022/05/17 02:24:57;;;;;;;11.77;10.77;;;14.10;99.90;;;;;;5068768;28;20419;-40
2022/05/17 02:27:23;;;;;;;12.40;11.30;;;14.00;99.90;;;;;;5069084;28;20200;-40
2022/05/17 02:29:48;;;;;;;11.47;10.53;;;14.00;99.90;;;;;;5068459;28;20213;-40
2022/05/17 02:32:14;;;;;;;11.30;10.20;;;13.90;99.90;;;;;;5068959;28;20246;-39
2022/05/17 02:34:41;;;;;;;12.60;11.60;;;13.80;99.90;;;;;;5060689;28;20201;-40
2022/05/17 02:37:06;;;;;;;11.30;10.30;;;13.80;99.90;;;;;;5066946;28;20250;-40
2022/05/17 02:39:32;;;;;;;11.57;10.57;;;13.80;99.90;;;;;;5077888;28;20422;-39
2022/05/17 02:41:58;;;;;;;12.60;11.60;;;13.80;99.90;;;;;;5085751;28;20577;-39
2022/05/17 02:44:24;;;;;;;12.53;11.33;;;13.90;99.90;;;;;;5087751;28;20426;-39
2022/05/17 02:46:50;;;;;;;10.97;10.07;;;14.00;99.90;;;;;;5085924;28;20185;-39
2022/05/17 02:49:16;;;;;;;11.27;10.30;;;13.90;99.90;;;;;;5060559;28;20798;-40
2022/05/17 02:51:43;;;;;;;11.60;10.70;;;13.90;99.90;;;;;;5064629;28;20224;-40
2022/05/17 02:54:10;;;;;;;11.40;10.30;;;13.80;99.90;;;;;;5068803;28;20184;-39
2022/05/17 02:56:37;;;;;;;11.07;10.17;;;13.80;99.90;;;;;;5068548;28;20497;-42
2022/05/17 02:59:03;;;;;;;10.37;9.50;;;13.80;99.90;;;;;;5068832;28;20482;-39
2022/05/17 03:01:29;;;;;;;13.03;11.00;;;13.90;99.90;;;;;;5068007;28;20459;-39
2022/05/17 03:03:55;;;;;;;11.73;10.63;;;13.70;99.90;;;;;;5062277;28;20444;-39
2022/05/17 03:06:21;;;;;;;10.77;9.80;;;13.70;99.90;;;;;;5066714;28;20451;-40
2022/05/17 03:08:47;;;;;;;14.20;11.47;;;13.70;99.90;;;;;;5068500;28;20551;-39
2022/05/17 03:11:12;;;;;;;12.20;11.00;;;13.70;99.90;;;;;;5069275;28;20427;-39
2022/05/17 03:13:38;;;;;;;12.10;11.00;;;13.70;99.90;;;;;;5069780;28;20177;-40
2022/05/17 03:16:05;;;;;;;11.37;10.27;;;13.80;99.90;;;;;;5086488;28;20192;-39
2022/05/17 03:18:30;;;;;;;11.60;10.50;;;13.70;99.90;;;;;;5080568;28;20288;-39
2022/05/17 03:20:56;;;;;;;12.00;10.80;;;13.70;99.90;;;;;;5061555;28;20477;-39
2022/05/17 03:23:22;;;;;;;12.20;11.03;;;13.80;99.90;;;;;;5068136;28;20278;-40
2022/05/17 03:25:48;;;;;;;11.10;10.10;;;13.70;99.90;;;;;;5068496;28;20185;-39
2022/05/17 03:28:14;;;;;;;12.43;10.50;;;13.70;99.90;;;;;;5068454;28;20189;-39
2022/05/17 03:30:40;;;;;;;12.07;10.87;;;13.70;99.90;;;;;;5067942;28;20902;-39
2022/05/17 03:33:06;;;;;;;11.30;9.90;;;13.70;99.90;;;;;;5068244;28;20185;-39
2022/05/17 03:35:32;;;;;;;13.23;10.93;;;13.70;99.90;;;;;;5055819;28;20935;-40
2022/05/17 03:37:58;;;;;;;13.43;11.33;;;13.70;99.90;;;;;;5076434;28;20219;-40
2022/05/17 03:40:23;;;;;;;12.30;11.10;;;13.70;99.90;;;;;;5081988;28;20422;-39
2022/05/17 03:42:49;;;;;;;13.43;12.00;;;13.70;99.90;;;;;;5074857;28;20191;-40
2022/05/17 03:45:15;;;;;;;15.00;11.60;;;13.70;99.90;;;;;;5070609;28;20224;-39
2022/05/17 03:47:41;;;;;;;13.50;10.50;;;13.80;99.90;;;;;;5071793;28;20276;-41
2022/05/17 03:50:09;;;;;;;11.50;10.40;;;13.80;99.90;;;;;;5063563;28;20192;-39
2022/05/17 03:52:35;;;;;;;18.47;12.57;;;13.80;99.90;;;;;;5073631;28;20435;-39
2022/05/17 03:55:03;;;;;;;12.20;10.90;;;13.90;99.90;;;;;;5071721;28;20422;-39
2022/05/17 03:57:29;;;;;;;12.83;11.10;;;13.90;99.90;;;;;;5072959;28;20506;-39
2022/05/17 03:59:55;;;;;;;12.03;10.83;;;13.90;99.90;;;;;;5084555;28;20964;-39
2022/05/17 04:02:22;;;;;;;13.53;11.03;;;13.80;99.90;;;;;;5081962;28;20230;-40
2022/05/17 04:04:51;;;;;;;12.60;10.97;;;13.90;99.90;;;;;;5067278;28;20432;-39
2022/05/17 04:07:17;;;;;;;12.47;11.20;;;13.90;99.90;;;;;;5071425;28;20484;-40
2022/05/17 04:09:43;;;;;;;11.93;10.73;;;14.00;99.90;;;;;;5069759;28;20431;-41
2022/05/17 04:12:09;;;;;;;12.60;11.40;;;14.00;99.90;;;;;;5069050;28;20189;-39
2022/05/17 04:14:34;;;;;;;12.40;10.70;;;14.00;99.90;;;;;;5071229;28;20193;-39
2022/05/17 04:17:00;;;;;;;13.03;11.60;;;14.00;99.90;;;;;;5071181;28;20455;-39
2022/05/17 04:19:26;;;;;;;16.13;11.23;;;14.00;99.90;;;;;;5064274;28;20177;-40
2022/05/17 04:21:51;;;;;;;11.90;10.70;;;14.10;99.90;;;;;;5064555;28;20644;-40
2022/05/17 04:24:17;;;;;;;14.67;11.20;;;14.00;99.90;;;;;;5071562;28;20181;-40
2022/05/17 04:26:43;;;;;;;13.97;12.53;;;14.10;99.90;;;;;;5081956;28;20187;-39
2022/05/17 04:29:10;;;;;;;12.87;11.60;;;14.20;99.90;;;;;;5088462;28;20188;-41
2022/05/17 04:31:36;;;;;;;13.70;12.20;;;14.10;99.90;;;;;;5071168;28;20260;-39
2022/05/17 04:34:03;;;;;;;13.53;11.70;;;14.20;99.90;;;;;;5065255;28;21169;-40
2022/05/17 04:36:28;;;;;;;13.83;12.10;;;14.20;99.90;;;;;;5065472;28;20561;-40
2022/05/17 04:38:54;;;;;;;12.57;11.40;;;14.20;99.90;;;;;;5073209;28;20580;-39
2022/05/17 04:41:20;;;;;;;12.27;11.00;;;14.20;99.90;;;;;;5062492;28;20212;-39
2022/05/17 04:43:46;;;;;;;13.13;11.77;;;14.30;99.90;;;;;;5068828;28;20272;-40
2022/05/17 04:46:12;;;;;;;15.17;11.77;;;14.20;99.90;;;;;;5070727;28;20557;-39
2022/05/17 04:48:39;;;;;;;15.33;11.63;;;14.30;99.90;;;;;;5069329;28;20192;-39
2022/05/17 04:51:06;;;;;;;12.40;10.73;;;14.30;99.90;;;;;;5051940;28;20437;-39
2022/05/17 04:53:32;;;;;;;13.87;10.10;;;14.40;99.90;;;;;;5070635;28;20445;-39
2022/05/17 04:55:58;;;;;;;12.30;10.50;;;14.40;99.90;;;;;;5070570;28;20435;-39
2022/05/17 04:58:23;;;;;;;12.53;10.87;;;14.40;99.90;;;;;;5070579;28;20185;-39
2022/05/17 05:00:49;;;;;;;12.77;11.40;;;14.40;99.90;;;;;;5070041;28;20196;-40
2022/05/17 05:03:15;;;;;;;12.90;10.40;;;14.50;99.90;;;;;;5068808;28;20851;-39
2022/05/17 05:05:40;;;;;;;11.60;10.40;;;14.50;99.90;;;;;;5055050;28;20182;-39
2022/05/17 05:08:06;;;;;;;12.73;10.93;;;14.50;99.90;;;;;;5070129;28;20189;-39
2022/05/17 05:10:32;;;;;;;11.97;10.70;;;14.60;99.90;;;;;;5079755;28;20190;-39
2022/05/17 05:12:58;;;;;;;11.57;10.40;;;14.60;99.90;;;;;;5068826;28;20833;-39
2022/05/17 05:15:24;;;;;;;12.37;10.67;;;14.70;99.90;;;;;;5069320;28;20263;-40
2022/05/17 05:17:50;;;;;;;10.93;9.93;;;14.80;99.90;;;;;;5069746;28;20580;-39
2022/05/17 05:20:16;;;;;;;10.77;9.77;;;14.90;99.90;;;;;;5059992;28;20443;-39
2022/05/17 05:22:42;;;;;;;14.10;9.50;;;15.00;99.90;;;;;;5067806;28;20339;-39
2022/05/17 05:25:08;;;;;;;10.17;9.20;;;15.10;99.90;;;;;;5070315;28;20424;-40
2022/05/17 05:27:36;;;;;;;12.00;9.43;;;15.20;99.90;;;;;;5069920;28;20436;-41
2022/05/17 05:30:05;;;;;;;13.00;9.80;;;15.30;99.90;;;;;;5069453;28;20431;-41
2022/05/17 05:32:31;;;;;;;10.40;9.30;;;15.40;99.90;;;;;;5068997;28;20431;-39
2022/05/17 05:34:57;;;;;;;9.87;8.97;;;15.50;99.90;;;;;;5058166;28;20436;-40
2022/05/17 05:37:23;;;;;;;10.70;8.57;;;15.50;99.90;;;;;;5069685;28;20984;-40
2022/05/17 05:39:48;;;;;;;10.27;9.10;;;15.60;99.90;;;;;;5081686;28;20212;-40
2022/05/17 05:42:14;;;;;;;11.23;9.90;;;15.60;99.90;;;;;;5089928;28;20482;-39
2022/05/17 05:44:39;;;;;;;11.30;9.10;;;15.70;99.90;;;;;;5070564;28;20193;-40
2022/05/17 05:47:05;;;;;;;14.17;9.70;;;15.70;99.90;;;;;;5069228;28;20315;-39
2022/05/17 05:49:31;;;;;;;12.70;9.30;;;15.80;99.90;;;;;;5062144;28;20280;-39
2022/05/17 05:51:57;;;;;;;9.03;8.13;;;15.80;99.90;;;;;;5062445;28;20208;-39
2022/05/17 05:54:22;;;;;;;11.23;8.93;;;15.90;99.90;;;;;;5065120;28;20185;-40
2022/05/17 05:56:48;;;;;;;10.50;9.37;;;16.00;99.90;;;;;;5062493;28;20216;-42
2022/05/17 05:59:14;;;;;;;9.60;8.57;;;16.00;99.90;;;;;;5067777;28;20260;-40
2022/05/17 06:01:40;;;;;;;11.30;9.43;;;16.10;99.90;;;;;;5067742;28;20213;-39
2022/05/17 06:04:06;;;;;;;10.43;8.70;;;16.20;99.90;;;;;;5067685;28;20783;-39
2022/05/17 06:06:32;;;;;;;13.60;8.60;;;16.30;99.90;;;;;;5056472;28;20284;-41
2022/05/17 06:08:58;;;;;;;10.67;8.80;;;16.40;99.90;;;;;;5068225;28;20420;-40
2022/05/17 06:11:23;;;;;;;10.73;8.87;;;16.50;99.90;;;;;;5067874;28;20470;-41
2022/05/17 06:13:49;;;;;;;12.47;8.33;;;16.60;99.90;;;;;;5050514;28;20242;-40
2022/05/17 06:16:16;;;;;;;9.57;8.57;;;16.70;99.90;;;;;;5068052;28;20200;-40
2022/05/17 06:18:41;;;;;;;9.60;7.80;;;16.90;99.90;;;;;;5068518;28;20196;-43
2022/05/17 06:21:07;;;;;;;8.73;7.73;;;17.00;99.90;;;;;;5062040;28;20431;-40
2022/05/17 06:23:35;;;;;;;11.10;7.90;;;17.10;99.90;;;;;;5064668;28;20215;-38
2022/05/17 06:26:01;;;;;;;11.77;8.10;;;17.10;99.90;;;;;;5067464;28;20423;-41
2022/05/17 06:28:27;;;;;;;8.40;7.60;;;17.20;99.90;;;;;;5067155;28;20423;-38
2022/05/17 06:30:53;;;;;;;8.20;6.97;;;17.30;99.90;;;;;;5067304;28;20468;-41
2022/05/17 06:33:19;;;;;;;10.50;6.70;;;17.30;99.90;;;;;;5068461;28;20424;-38
2022/05/17 06:35:45;;;;;;;9.37;6.50;;;17.40;99.90;;;;;;5059560;28;20441;-37
2022/05/17 06:38:11;;;;;;;9.60;6.23;;;17.50;99.90;;;;;;5067979;28;21068;-39
2022/05/17 06:40:37;;;;;;;7.97;6.10;;;17.60;99.90;;;;;;5073979;28;20509;-41
2022/05/17 06:43:04;;;;;;;7.53;6.10;;;17.70;99.90;;;;;;5087669;28;20423;-39
2022/05/17 06:45:30;;;;;;;7.80;6.00;;;17.80;99.90;;;;;;5086122;28;20974;-39
2022/05/17 06:47:56;;;;;;;10.23;6.70;;;17.90;99.90;;;;;;5074737;28;20502;-41
2022/05/17 06:50:22;;;;;;;10.97;6.27;;;17.90;99.90;;;;;;5060253;28;20514;-43
2022/05/17 06:52:48;;;;;;;8.37;6.37;;;18.00;99.90;;;;;;5064861;28;20224;-38
2022/05/17 06:55:14;;;;;;;7.40;5.80;;;18.10;99.90;;;;;;5068008;28;20263;-38
2022/05/17 06:57:40;;;;;;;7.07;5.60;;;18.10;99.90;;;;;;5031282;28;1065091;-39
2022/05/17 07:00:11;;;;;;;7.90;5.73;;;18.20;99.90;;;;;;5068137;28;20813;-40
2022/05/17 07:02:38;;;;;;;7.63;5.50;;;18.30;99.90;;;;;;5068689;28;20420;-40
2022/05/17 07:05:04;;;;;;;5.97;5.37;;;18.40;99.90;;;;;;5064074;28;20443;-40
2022/05/17 07:07:29;;;;;;;8.00;5.33;;;18.50;99.90;;;;;;5060979;28;20427;-39
2022/05/17 07:15:24;;;;;;;8.80;5.80;;;18.90;99.90;;;;;;5072720;28;20887;-39
2022/05/17 07:17:51;;;;;;;14.07;6.77;;;19.00;99.90;;;;;;5070875;28;20566;-39
2022/05/17 07:20:16;;;;;;;8.40;6.73;;;19.00;99.90;;;;;;5066555;28;20637;-39
2022/05/17 07:22:43;;;;;;;8.07;6.63;;;19.00;99.90;;;;;;5062493;28;20427;-40
2022/05/17 07:25:09;;;;;;;10.70;6.93;;;19.10;99.90;;;;;;5072477;28;20644;-39
2022/05/17 07:27:35;;;;;;;8.53;6.30;;;19.00;99.90;;;;;;5072206;28;20430;-39
2022/05/17 07:30:02;;;;;;;9.37;6.17;;;19.00;99.90;;;;;;5071774;28;20433;-40
2022/05/17 07:32:28;;;;;;;8.33;7.40;;;19.00;99.90;;;;;;5072039;28;20216;-39
2022/05/17 07:34:54;;;;;;;13.87;7.43;;;19.00;99.90;;;;;;5071068;28;20531;-40
2022/05/17 07:37:19;;;;;;;9.80;7.40;;;19.10;99.90;;;;;;5079930;28;20201;-39
2022/05/17 07:39:45;;;;;;;8.47;6.60;;;19.20;99.90;;;;;;5073494;28;20185;-39
2022/05/17 07:42:11;;;;;;;9.50;6.47;;;19.20;99.90;;;;;;5087581;28;20219;-39
2022/05/17 07:44:37;;;;;;;8.90;6.90;;;19.30;99.90;;;;;;5070620;28;20185;-39
2022/05/17 07:47:03;;;;;;;11.20;6.47;;;19.40;99.90;;;;;;5072036;28;20510;-39
2022/05/17 07:49:31;;;;;;;13.77;7.13;;;19.50;99.90;;;;;;5071933;28;20192;-39
2022/05/17 07:51:56;;;;;;;10.53;7.37;;;19.50;99.90;;;;;;5060163;28;20435;-40
2022/05/17 07:54:22;;;;;;;10.73;7.17;;;19.60;99.90;;;;;;5071938;28;20423;-39
2022/05/17 07:56:48;;;;;;;14.20;6.53;;;19.70;99.90;;;;;;5087383;28;20240;-39
2022/05/17 07:59:13;;;;;;;10.97;7.47;;;19.70;99.90;;;;;;5071594;28;20196;-39
2022/05/17 08:01:39;;;;;;;10.60;6.43;;;19.60;99.90;;;;;;5070832;28;20193;-39
2022/05/17 08:04:05;;;;;;;8.77;6.10;;;19.50;99.90;;;;;;5070146;28;20649;-41
2022/05/17 08:06:31;;;;;;;9.27;6.63;;;19.50;99.90;;;;;;5060699;28;20841;-42
2022/05/17 08:08:56;;;;;;;9.60;6.60;;;19.50;99.90;;;;;;5069779;28;20195;-41
2022/05/17 08:11:24;;;;;;;12.10;7.30;;;19.60;99.90;;;;;;5071227;28;20427;-45
2022/05/17 08:13:50;;;;;;;9.03;6.57;;;19.50;99.90;;;;;;5071627;28;20609;-40
2022/05/17 08:16:16;;;;;;;9.27;6.87;;;19.40;99.90;;;;;;5071115;28;20419;-43
2022/05/17 08:18:41;;;;;;;7.93;5.90;;;19.40;99.90;;;;;;5071447;28;20495;-41
2022/05/17 08:21:07;;;;;;;7.03;5.27;;;19.50;99.90;;;;;;5064736;28;20208;-40
2022/05/17 08:23:34;;;;;;;9.30;5.30;;;19.50;99.90;;;;;;5082183;28;20204;-42
2022/05/17 08:28:45;;;;;;;6.43;4.53;;;19.60;99.90;;;;;;5049476;28;20439;-42
2022/05/17 08:31:11;;;;;;;6.10;4.80;;;19.60;99.90;;;;;;5070695;28;20433;-43
2022/05/17 08:33:38;;;;;;;9.27;4.60;;;19.60;99.90;;;;;;5071116;28;20193;-40
2022/05/17 08:36:13;;;;;;;9.60;4.70;;;19.50;99.90;;;;;;5063450;28;20214;-40
2022/05/17 08:38:49;;;;;;;10.17;5.67;;;19.60;99.90;;;;;;5069107;28;21381;-42
2022/05/17 08:41:37;;;;;;;8.93;5.40;;;19.50;99.90;;;;;;5065334;28;20415;-40
2022/05/17 08:44:13;;;;;;;6.37;4.40;;;19.50;99.90;;;;;;5086209;28;20419;-40
2022/05/17 08:47:06;;;;;;;13.53;6.90;;;19.60;99.90;;;;;;5070753;28;20427;-39
2022/05/17 08:49:47;;;;;;;8.57;5.73;;;19.50;99.90;;;;;;5070980;28;20785;-40
2022/05/17 08:52:19;;;;;;;7.93;5.20;;;19.50;99.90;;;;;;5074319;28;20929;-39
2022/05/17 08:54:55;;;;;;;8.30;6.27;;;19.40;99.90;;;;;;5069311;28;20426;-42
2022/05/17 08:57:45;;;;;;;7.93;5.73;;;19.40;99.90;;;;;;5070612;28;20465;-40
2022/05/17 09:00:18;;;;;;;9.63;5.67;;;19.40;99.90;;;;;;5070108;28;20415;-44
2022/05/17 09:02:49;;;;;;;10.70;5.70;;;19.40;99.90;;;;;;5070469;28;20736;-40
2022/05/17 09:05:36;;;;;;;7.30;4.53;;;19.40;99.90;;;;;;5069327;28;20430;-41
2022/05/17 09:08:07;;;;;;;8.20;5.50;;;19.40;99.90;;;;;;5066103;28;20427;-42
2022/05/17 09:10:49;;;;;;;7.47;5.53;;;19.50;99.90;;;;;;5069850;28;20422;-44
2022/05/17 09:13:23;;;;;;;10.50;5.00;;;19.50;99.90;;;;;;5069978;28;20423;-39
2022/05/17 09:15:52;;;;;;;10.03;5.40;;;19.40;99.90;;;;;;5070393;28;20782;-42
2022/05/17 09:18:19;;;;;;;9.90;5.40;;;19.40;99.90;;;;;;5070144;28;20455;-40
2022/05/17 09:20:45;;;;;;;6.50;5.67;;;19.40;99.90;;;;;;5067694;28;20517;-42
2022/05/17 09:23:12;;;;;;;8.63;5.90;;;19.50;99.90;;;;;;5062602;28;20419;-45
2022/05/17 09:26:05;;;;;;;11.57;6.53;;;19.50;99.90;;;;;;5070055;28;20274;-39
2022/05/17 09:28:54;;;;;;;9.23;5.80;;;19.50;99.90;;;;;;5070113;28;20921;-40
2022/05/17 09:31:23;;;;;;;9.20;6.10;;;19.60;99.90;;;;;;5068223;28;20480;-43
2022/05/17 09:33:50;;;;;;;9.20;5.70;;;19.60;99.90;;;;;;5069136;28;20426;-41
2022/05/17 09:36:32;;;;;;;10.03;6.93;;;19.70;99.90;;;;;;5063392;28;20458;-42
2022/05/17 09:38:59;;;;;;;7.73;6.10;;;19.70;99.90;;;;;;5070456;28;20433;-41
2022/05/17 09:41:34;;;;;;;9.60;6.03;;;19.70;99.90;;;;;;5069311;28;20419;-40
2022/05/17 09:44:09;;;;;;;5.87;4.90;;;19.80;99.90;;;;;;5069624;28;20423;-40
2022/05/17 09:46:42;;;;;;;10.50;6.17;;;19.80;99.90;;;;;;5069534;28;20517;-44
2022/05/17 09:52:33;;;;;;;8.60;5.70;;;19.90;99.90;;;;;;5058383;28;20515;-41
2022/05/17 09:55:24;;;;;;;7.77;5.07;;;20.00;99.90;;;;;;5067811;28;20465;-40
2022/05/17 09:58:06;;;;;;;10.30;5.70;;;20.10;99.90;;;;;;5069629;28;20864;-41
2022/05/17 10:00:46;;;;;;;8.67;5.80;;;20.10;99.90;;;;;;5068993;28;20427;-42
2022/05/17 10:03:36;;;;;;;10.07;5.20;;;20.10;99.90;;;;;;5069238;28;20927;-39
2022/05/17 10:06:15;;;;;;;8.63;4.43;;;20.20;99.90;;;;;;5067129;28;20519;-44
2022/05/17 10:09:08;;;;;;;8.47;5.60;;;20.40;99.90;;;;;;5059563;28;20427;-43
2022/05/17 10:11:48;;;;;;;6.30;5.00;;;20.60;99.90;;;;;;5062398;28;20423;-42
2022/05/17 10:14:14;;;;;;;8.93;5.40;;;20.60;99.90;;;;;;5069175;28;20415;-39
2022/05/17 10:16:50;;;;;;;8.83;4.63;;;20.60;99.90;;;;;;5069348;28;20454;-39
2022/05/17 10:19:20;;;;;;;9.17;4.67;;;20.60;99.90;;;;;;5069108;28;20200;-41
2022/05/17 10:21:56;;;;;;;6.97;4.53;;;20.70;99.90;;;;;;5060455;28;20443;-42
2022/05/17 10:24:40;;;;;;;10.10;4.33;;;20.60;99.90;;;;;;5067465;28;20504;-41
2022/05/17 10:27:22;;;;;;;6.77;4.70;;;20.60;99.90;;;;;;5068956;28;20430;-42
2022/05/17 10:29:54;;;;;;;8.43;4.07;;;20.60;99.90;;;;;;5068354;28;20431;-40
2022/05/17 10:32:37;;;;;;;7.67;4.70;;;20.70;99.90;;;;;;5068897;28;20425;-41
2022/05/17 10:35:17;;;;;;;6.30;3.80;;;20.60;99.90;;;;;;5069068;28;20798;-41
2022/05/17 10:38:01;;;;;;;6.17;4.63;;;20.60;99.90;;;;;;5062205;28;20468;-44
2022/05/17 10:40:32;;;;;;;5.47;4.00;;;20.70;99.90;;;;;;5070548;28;20419;-40
2022/05/17 10:43:00;;;;;;;10.33;5.10;;;20.70;99.90;;;;;;5068810;28;20427;-43
2022/05/17 10:45:35;;;;;;;8.97;4.70;;;20.60;99.90;;;;;;5083282;28;20779;-45
2022/05/17 10:48:25;;;;;;;7.70;4.60;;;20.50;99.90;;;;;;5068835;28;20426;-45
2022/05/17 10:51:02;;;;;;;4.53;3.20;;;20.50;99.90;;;;;;5068263;28;20474;-41
2022/05/17 10:53:38;;;;;;;7.40;5.20;;;20.60;99.90;;;;;;5059847;28;20438;-41
2022/05/17 10:56:19;;;;;;;5.40;3.70;;;20.60;99.90;;;;;;5068654;28;20896;-43
2022/05/17 10:59:22;;;;;;;5.10;3.37;;;20.70;99.90;;;;;;5056640;28;20841;-39
2022/05/17 11:02:13;;;;;;;6.40;4.37;;;20.80;99.90;;;;;;5057349;28;20446;-43
2022/05/17 11:05:01;;;;;;;5.10;4.40;;;20.90;99.90;;;;;;5067296;28;20419;-44
2022/05/17 11:07:47;;;;;;;8.80;4.33;;;21.10;99.90;;;;;;5057864;28;20428;-43
2022/05/17 11:10:30;;;;;;;5.30;4.00;;;21.20;99.90;;;;;;5063562;28;21196;-41
2022/05/17 11:13:08;;;;;;;5.70;4.00;;;21.30;99.90;;;;;;5065916;28;20422;-39
2022/05/17 11:15:38;;;;;;;5.73;4.00;;;21.40;99.90;;;;;;5068805;28;20449;-43
2022/05/17 11:18:43;;;;;;;6.60;3.70;;;21.40;99.90;;;;;;5068114;28;20522;-40
2022/05/17 11:21:24;;;;;;;5.63;3.60;;;21.50;99.90;;;;;;5046529;28;20427;-42
2022/05/17 11:23:56;;;;;;;5.90;3.90;;;21.50;99.90;;;;;;5060067;28;20423;-41
2022/05/17 11:26:55;;;;;;;6.70;4.13;;;21.50;99.90;;;;;;5068750;28;20426;-44
2022/05/17 11:29:33;;;;;;;3.80;2.83;;;21.50;99.90;;;;;;5068312;28;20961;-43
2022/05/17 11:32:01;;;;;;;4.23;2.40;;;21.50;99.90;;;;;;5068239;28;20438;-41
2022/05/17 11:34:31;;;;;;;4.10;3.00;;;21.50;99.90;;;;;;5068471;28;20423;-44
2022/05/17 11:36:59;;;;;;;4.67;3.37;;;21.40;99.90;;;;;;5064044;28;20555;-40
2022/05/17 11:39:31;;;;;;;3.90;2.90;;;21.40;99.90;;;;;;5063371;28;20814;-44
2022/05/17 11:42:11;;;;;;;4.07;2.67;;;21.40;99.90;;;;;;5067648;28;20423;-43
2022/05/17 11:44:41;;;;;;;3.83;2.23;;;21.30;99.90;;;;;;5068257;28;20425;-41
2022/05/17 11:47:27;;;;;;;4.60;2.60;;;21.30;99.90;;;;;;5068049;28;20411;-43
2022/05/17 11:49:52;;;;;;;6.50;3.10;;;21.30;99.90;;;;;;5067547;28;20514;-43
2022/05/17 11:52:25;;;;;;;4.23;2.70;;;21.30;99.90;;;;;;5062505;28;20478;-41
2022/05/17 11:54:53;;;;;;;5.20;3.07;;;21.30;99.90;;;;;;5065852;28;20181;-42
2022/05/17 11:57:18;;;;;;;6.60;3.23;;;21.20;99.90;;;;;;5068659;28;20471;-42
2022/05/17 11:59:56;;;;;;;4.50;3.10;;;21.20;99.90;;;;;;5071089;28;20465;-42
2022/05/17 12:02:40;;;;;;;5.17;2.87;;;21.10;99.90;;;;;;5071895;28;20254;-43
2022/05/17 12:05:10;;;;;;;5.07;2.83;;;21.10;99.90;;;;;;5070147;28;20423;-42
2022/05/17 12:07:36;;;;;;;4.03;2.87;;;21.00;99.90;;;;;;5060819;28;20498;-41
2022/05/17 12:10:15;;;;;;;5.20;2.80;;;21.00;99.90;;;;;;5069954;28;20427;-42
2022/05/17 12:12:53;;;;;;;6.40;2.67;;;21.00;99.90;;;;;;5072818;28;20525;-43
2022/05/17 12:15:32;;;;;;;5.00;2.90;;;21.00;99.90;;;;;;5064533;28;20453;-43
2022/05/17 12:18:17;;;;;;;5.53;2.83;;;20.90;99.90;;;;;;5071545;28;20901;-40
2022/05/17 12:21:18;;;;;;;6.53;2.67;;;21.00;99.90;;;;;;5070490;28;20454;-40
2022/05/17 12:23:56;;;;;;;6.73;3.33;;;20.90;99.90;;;;;;5053899;28;20926;-39
2022/05/17 12:26:32;;;;;;;4.63;2.63;;;20.90;99.90;;;;;;5064964;28;20475;-42
2022/05/17 12:30:52;;;;;;;3.80;2.40;;;20.90;99.90;;;;;;5071284;28;20425;-39
2022/05/17 12:31:44;;;;;;;4.73;3.07;;;20.90;99.90;;;;;;5070340;28;20430;-39
2022/05/17 12:34:20;;;;;;;3.73;2.77;;;20.90;99.90;;;;;;5070875;28;20427;-39
2022/05/17 12:36:46;;;;;;;8.13;3.47;;;20.80;99.90;;;;;;5070376;28;20209;-43
2022/05/17 12:45:12;;;;;;;5.50;2.40;;;20.80;99.90;;;;;;5070947;28;20771;-40
2022/05/17 12:47:46;;;;;;;3.20;1.97;;;20.80;99.90;;;;;;5069459;28;20427;-39
2022/05/17 12:50:20;;;;;;;3.80;2.37;;;20.70;99.90;;;;;;5070135;28;20670;-44
2022/05/17 12:52:51;;;;;;;5.27;2.73;;;20.80;99.90;;;;;;5063493;28;20451;-40
2022/05/17 12:55:20;;;;;;;3.80;2.20;;;20.80;99.90;;;;;;5071214;28;20762;-41
2022/05/17 12:57:45;;;;;;;2.90;2.30;;;20.70;99.90;;;;;;5070533;28;20471;-39
2022/05/17 13:00:17;;;;;;;2.67;2.30;;;20.70;99.90;;;;;;5069911;28;20419;-40
2022/05/17 13:02:58;;;;;;;3.03;2.73;;;20.80;99.90;;;;;;5083825;28;20524;-40
2022/05/17 13:05:39;;;;;;;4.03;2.80;;;20.80;99.90;;;;;;5089558;28;20600;-40
2022/05/17 13:08:11;;;;;;;6.07;2.40;;;20.80;99.90;;;;;;5072966;28;20442;-40
2022/05/17 13:10:40;;;;;;;3.07;2.50;;;20.80;99.90;;;;;;5065634;28;20462;-40
2022/05/17 13:13:14;;;;;;;3.63;2.43;;;20.80;99.90;;;;;;5068741;28;20419;-41